Milford, IA (51351)

4:19 AM CDT on August 05, 2015 (GMT -0500)
West Sioux Estates 10 | | Change Station
CLOSE
Current Station
Personal Weather Station
Location: Milford, IA
Elevation: 1420 ft
Nearby Weather Stations

Elev 1420 ft 43.32 °N, 95.20 °W | Updated 5 minutes ago

Partly Cloudy
Partly Cloudy
61.6 °F
Feels Like 61.6 °F
N
1.0
Wind Variable Wind from WNW
Gusts 5.0 mph

Today
High -- | Low -- °F
--% Chance of Precip.
Yesterday
High -- | Low -- °F
Precip. -- in
6:14 AM 8:37 PM
Waning Gibbous, 69% visible
Pressure 30.01 in
Visibility 10.0 miles
Clouds Clear
Dew Point 55 °F
Humidity 78%
Rainfall 0.00 in
Snow Depth Not available.
UV 0 out of 12
Pollen 6.30 out of 12
Air Quality Not available.
Flu Activity Not available.
METAR KSPW 050853Z AUTO 07005KT 10SM CLR 14/12 A3003 RMK AO2 SLP163 T01440117 58007

More Conditions Fewer Conditions

Pressure 30.01 in
Visibility 10.0 miles
Clouds Clear
Dew Point 55 °F
Humidity 78%
Rainfall 0.00 in
Snow Depth Not available.
UV 0 out of 12
Pollen 6.30 out of 12
Air Quality Not available.
Flu Activity Not available.
METAR KSPW 050853Z AUTO 07005KT 10SM CLR 14/12 A3003 RMK AO2 SLP163 T01440117 58007

More Conditions Fewer Conditions

10-Day Weather Forecast

×

Almanac

Astronomy

Aug. 05, 2015 Rise Set
Actual Time
Civil Twilight
Nautical Twilight
Astronomical Twilight
Moon
Length of Visible Light
Length of Day
Tomorrow will be .
, % of the Moon is Illuminated

Today's Extremes

State Highs State Lows

Community

WunderPhotos

Upload Photos

1,844,105 photos uploaded!

WunderBlogs® & News

Nearby

Air Quality

  Air Quality AQ Index Pollutant
Not available.

Snow Depth

Station Depth Elevation

Earthquake Activity

City Distance Mag. Time & Date
Minimum magnitude displayed is 2.5.

Coastal Water Temperatures

Place Temperature

Stations

Nearby Weather Stations

Station Location Temp. Windchill Dew Point Humidity Wind Precip. Elev Updated Type